Time;durP1;ratioP1;P1;durP2;ratioP2;P2;SDS_P1;SDS_P2;PMS_P1;PMS_P2;Temp;Humidity;BMP_temperature;BMP_pressure;BME280_temperature;BME280_humidity;BME280_pressure;Samples;Min_cycle;Max_cycle;Signal;HPM_P1;HPM_P2
2021/01/01 00:00:29;;;;;;;66.77;40.92;;;;;;;0.29;82.09;95613.63;1800320;78;22938;-82
2021/01/01 00:03:00;;;;;;;66.53;42.25;;;;;;;0.23;82.06;95619.29;1766326;79;21124;-81
2021/01/01 00:05:29;;;;;;;69.82;43.42;;;;;;;0.19;81.94;95624.81;1771236;79;21240;-81
2021/01/01 00:07:55;;;;;;;68.50;42.83;;;;;;;0.13;81.80;95626.15;1769563;79;21125;-81
2021/01/01 00:10:21;;;;;;;67.58;42.10;;;;;;;0.07;81.92;95631.00;1773895;79;21108;-81
2021/01/01 00:12:47;;;;;;;70.45;41.88;;;;;;;0.05;81.99;95623.48;1743294;79;21093;-81
2021/01/01 00:15:13;;;;;;;67.92;41.77;;;;;;;0.04;81.92;95630.00;1771911;79;21254;-82
2021/01/01 00:17:40;;;;;;;72.47;43.20;;;;;;;-0.01;81.88;95628.64;1767998;79;21453;-81
2021/01/01 00:20:08;;;;;;;66.12;40.30;;;;;;;-0.04;81.94;95632.74;1753681;79;21259;-81
2021/01/01 00:22:35;;;;;;;65.57;40.03;;;;;;;-0.11;82.00;95630.41;1768896;79;21093;-82
2021/01/01 00:25:01;;;;;;;62.93;39.67;;;;;;;-0.11;81.97;95633.43;1765026;79;21123;-82
2021/01/01 00:27:29;;;;;;;68.35;39.48;;;;;;;-0.09;82.19;95636.66;1772052;79;21371;-82
2021/01/01 00:29:56;;;;;;;66.37;40.55;;;;;;;-0.11;82.05;95635.98;1776513;79;21145;-82
2021/01/01 00:32:22;;;;;;;64.10;40.95;;;;;;;-0.07;82.20;95638.59;1765973;79;21126;-82
2021/01/01 00:34:48;;;;;;;63.92;40.05;;;;;;;-0.07;82.15;95635.57;1771548;79;21097;-83
2021/01/01 00:37:15;;;;;;;65.05;40.20;;;;;;;-0.09;82.04;95642.56;1774719;79;21114;-83
2021/01/01 00:39:40;;;;;;;65.25;40.12;;;;;;;-0.11;82.11;95635.98;1775399;79;21110;-83
2021/01/01 00:42:07;;;;;;;64.47;39.50;;;;;;;-0.13;82.02;95636.13;1759274;80;21408;-82
2021/01/01 00:44:33;;;;;;;64.92;40.67;;;;;;;-0.13;82.04;95636.59;1770964;80;21153;-83
2021/01/01 00:47:00;;;;;;;63.87;38.17;;;;;;;-0.19;81.95;95635.83;1793812;80;21208;-84
2021/01/01 00:49:26;;;;;;;62.88;39.67;;;;;;;-0.19;82.07;95633.28;1791199;80;21137;-83
2021/01/01 00:51:52;;;;;;;60.00;37.83;;;;;;;-0.17;81.94;95635.22;1784686;80;21742;-83
2021/01/01 00:54:19;;;;;;;65.57;37.10;;;;;;;-0.17;82.02;95635.22;1771559;80;21333;-83
2021/01/01 00:56:45;;;;;;;61.35;39.23;;;;;;;-0.14;82.09;95634.98;1767186;80;21134;-82
2021/01/01 00:59:11;;;;;;;57.20;37.13;;;;;;;-0.15;82.04;95641.03;1782174;79;21106;-82
2021/01/01 01:01:37;;;;;;;66.10;40.95;;;;;;;-0.14;81.91;95643.92;1751078;82;21150;-82
2021/01/01 01:04:04;;;;;;;60.52;38.63;;;;;;;-0.20;81.86;95650.34;1779209;80;21235;-83
2021/01/01 01:06:30;;;;;;;72.60;41.02;;;;;;;-0.22;81.79;95645.04;1776713;80;21391;-82
2021/01/01 01:08:57;;;;;;;70.85;43.35;;;;;;;-0.25;81.71;95652.97;1765998;80;21134;-82
2021/01/01 01:11:24;;;;;;;65.30;42.35;;;;;;;-0.26;81.91;95655.19;1756359;80;21385;-82
2021/01/01 01:13:54;;;;;;;67.08;40.45;;;;;;;-0.28;81.76;95654.52;1766859;80;21317;-82
2021/01/01 01:16:23;;;;;;;65.57;38.75;;;;;;;-0.28;81.74;95650.69;1765508;80;21106;-82
2021/01/01 01:18:50;;;;;;;66.92;43.75;;;;;;;-0.32;81.79;95652.23;1763163;80;21181;-82
2021/01/01 01:21:16;;;;;;;71.35;44.70;;;;;;;-0.34;81.67;95648.17;1770999;80;21229;-82
2021/01/01 01:23:42;;;;;;;69.90;42.33;;;;;;;-0.38;81.53;95645.09;1764384;80;21123;-82
2021/01/01 01:26:08;;;;;;;68.10;41.65;;;;;;;-0.44;81.35;95648.18;1766003;80;21306;-82
2021/01/01 01:28:34;;;;;;;69.37;43.52;;;;;;;-0.58;81.10;95655.41;1772200;80;21243;-82
2021/01/01 01:31:00;;;;;;;71.22;42.73;;;;;;;-0.67;81.37;95656.98;1772113;80;21086;-82
2021/01/01 01:33:26;;;;;;;75.97;44.45;;;;;;;-0.69;81.47;95659.66;1764785;80;21141;-83
2021/01/01 01:35:53;;;;;;;71.92;41.70;;;;;;;-0.74;81.40;95657.17;1768698;80;21102;-82
2021/01/01 01:38:19;;;;;;;70.83;41.92;;;;;;;-0.73;81.54;95657.52;1759900;80;21449;-82
2021/01/01 01:40:45;;;;;;;69.67;45.38;;;;;;;-0.78;81.11;95666.03;1759845;80;21124;-82
2021/01/01 01:43:11;;;;;;;68.20;44.67;;;;;;;-0.87;81.09;95666.32;1765854;80;21331;-83
2021/01/01 01:45:38;;;;;;;69.35;42.55;;;;;;;-0.95;81.06;95659.33;1770741;80;21339;-82
2021/01/01 01:48:05;;;;;;;73.42;45.78;;;;;;;-0.97;81.17;95665.50;1773289;80;21267;-82
2021/01/01 01:50:31;;;;;;;73.87;47.60;;;;;;;-1.00;81.12;95660.62;1767935;80;22114;-82
2021/01/01 01:52:57;;;;;;;67.25;43.25;;;;;;;-1.02;81.27;95662.03;1764249;80;21117;-82
2021/01/01 01:55:23;;;;;;;47.05;29.87;;;;;;;-1.07;80.97;95661.62;1764082;80;21136;-82
2021/01/01 01:57:49;;;;;;;54.27;34.13;;;;;;;-1.14;80.75;95672.00;1766510;80;21110;-82
2021/01/01 02:02:46;;;;;;;47.95;30.20;;;;;;;-1.24;81.17;95676.23;1778028;80;21245;-82
2021/01/01 02:05:13;;;;;;;48.35;31.97;;;;;;;-1.25;81.45;95680.52;1772506;80;21126;-82
2021/01/01 02:07:40;;;;;;;43.78;29.00;;;;;;;-1.23;81.33;95681.20;1768296;80;21113;-83
2021/01/01 02:10:08;;;;;;;53.98;32.23;;;;;;;-1.16;81.46;95684.51;1775627;80;21112;-82
2021/01/01 02:12:34;;;;;;;51.20;32.00;;;;;;;-1.12;81.44;95680.80;1764736;80;21157;-82
2021/01/01 02:15:00;;;;;;;58.87;35.55;;;;;;;-1.10;81.43;95679.73;1768107;80;21118;-82
2021/01/01 02:17:26;;;;;;;55.50;36.93;;;;;;;-1.10;81.30;95673.83;1769762;80;21454;-82
2021/01/01 02:20:09;;;;;;;56.88;36.88;;;;;;;-1.08;81.19;95671.95;1767962;80;21110;-82
2021/01/01 02:22:38;;;;;;;55.40;34.00;;;;;;;-1.08;81.10;95671.95;1770794;80;21086;-82
2021/01/01 02:25:08;;;;;;;55.63;35.23;;;;;;;-1.09;81.08;95663.49;1767321;80;21294;-82
2021/01/01 02:27:34;;;;;;;52.55;32.98;;;;;;;-1.09;81.04;95657.13;1766642;80;22025;-82
2021/01/01 02:30:00;;;;;;;48.02;34.63;;;;;;;-1.11;80.91;95665.37;1770948;80;21138;-82
2021/01/01 02:32:26;;;;;;;52.45;34.15;;;;;;;-1.14;80.57;95657.14;1763831;80;21158;-82
2021/01/01 02:34:52;;;;;;;53.35;34.23;;;;;;;-1.17;80.49;95650.56;1760846;80;21115;-82
2021/01/01 02:37:18;;;;;;;49.03;30.43;;;;;;;-1.21;80.52;95646.19;1775273;80;21124;-82
2021/01/01 02:39:44;;;;;;;45.43;29.55;;;;;;;-1.24;80.09;95659.20;1767534;80;21153;-82
2021/01/01 02:42:10;;;;;;;44.27;29.77;;;;;;;-1.32;80.16;95655.19;1767245;80;21112;-82
2021/01/01 02:44:37;;;;;;;44.88;30.55;;;;;;;-1.33;80.27;95655.31;1770465;80;21114;-82
2021/01/01 02:47:03;;;;;;;48.80;30.43;;;;;;;-1.35;80.15;95657.19;1768459;80;21122;-82
2021/01/01 02:49:31;;;;;;;46.20;28.40;;;;;;;-1.41;80.09;95654.69;1752112;80;21220;-82
2021/01/01 02:51:58;;;;;;;45.65;28.73;;;;;;;-1.40;80.18;95652.48;1766442;80;21139;-82
2021/01/01 02:54:24;;;;;;;46.20;31.95;;;;;;;-1.40;80.18;95655.02;1765298;80;21254;-82
2021/01/01 02:56:50;;;;;;;44.90;29.48;;;;;;;-1.42;80.25;95656.89;1767660;80;21086;-82
2021/01/01 02:59:16;;;;;;;41.55;26.93;;;;;;;-1.42;80.40;95661.98;1768302;80;21293;-82
2021/01/01 03:01:42;;;;;;;46.75;28.85;;;;;;;-1.41;80.47;95662.80;1760186;80;21109;-82
2021/01/01 03:04:09;;;;;;;42.13;26.80;;;;;;;-1.43;80.55;95656.55;1765705;80;21117;-82
2021/01/01 03:06:35;;;;;;;41.70;25.82;;;;;;;-1.47;80.61;95655.17;1762438;80;21271;-82
2021/01/01 03:09:03;;;;;;;39.63;26.02;;;;;;;-1.52;80.71;95656.83;1764021;80;21122;-82
2021/01/01 03:11:29;;;;;;;37.70;25.15;;;;;;;-1.57;80.79;95655.13;1766600;80;21242;-82
2021/01/01 03:13:55;;;;;;;37.30;23.20;;;;;;;-1.58;80.91;95660.35;1760570;80;21225;-82
2021/01/01 03:16:21;;;;;;;35.90;24.52;;;;;;;-1.59;81.07;95657.00;1764365;80;21136;-82
2021/01/01 03:18:47;;;;;;;40.30;25.32;;;;;;;-1.58;81.01;95656.53;1762047;80;21671;-82
2021/01/01 03:21:13;;;;;;;40.70;25.65;;;;;;;-1.58;81.08;95649.69;1761632;80;21126;-82
2021/01/01 03:23:39;;;;;;;40.03;25.62;;;;;;;-1.58;81.24;95661.16;1770350;80;21090;-82
2021/01/01 03:26:05;;;;;;;41.08;24.45;;;;;;;-1.55;81.45;95652.45;1767404;80;22056;-82
2021/01/01 03:28:31;;;;;;;38.02;25.17;;;;;;;-1.51;81.51;95652.53;1765643;80;21112;-82
2021/01/01 03:30:57;;;;;;;39.23;24.90;;;;;;;-1.55;81.44;95655.00;1769965;80;21327;-82
2021/01/01 03:33:23;;;;;;;39.25;26.27;;;;;;;-1.58;81.54;95653.52;1766456;80;21106;-82
2021/01/01 03:35:49;;;;;;;37.73;25.15;;;;;;;-1.60;81.53;95652.03;1764242;80;21118;-82
2021/01/01 03:38:15;;;;;;;40.85;25.90;;;;;;;-1.63;81.53;95648.00;1772329;80;21177;-82
2021/01/01 03:40:42;;;;;;;42.75;26.93;;;;;;;-1.64;81.66;95657.81;1770046;80;21125;-82
2021/01/01 03:43:08;;;;;;;41.48;25.23;;;;;;;-1.61;81.72;95655.05;1761276;80;21108;-82
2021/01/01 03:45:34;;;;;;;42.98;25.75;;;;;;;-1.59;81.82;95657.47;1764491;80;21080;-82
2021/01/01 03:48:00;;;;;;;39.58;25.12;;;;;;;-1.60;81.73;95660.95;1760255;80;21134;-82
2021/01/01 03:50:26;;;;;;;38.88;24.75;;;;;;;-1.61;81.77;95660.61;1769298;80;21106;-81
2021/01/01 03:52:52;;;;;;;41.18;26.40;;;;;;;-1.60;81.88;95666.05;1766812;80;21316;-82
2021/01/01 03:55:18;;;;;;;37.45;24.23;;;;;;;-1.58;81.78;95670.54;1764431;80;21126;-82
2021/01/01 03:57:44;;;;;;;40.28;26.02;;;;;;;-1.58;81.68;95667.53;1767744;80;21237;-82
2021/01/01 04:00:12;;;;;;;45.83;25.55;;;;;;;-1.55;81.71;95672.84;1762171;80;21262;-82
2021/01/01 04:02:38;;;;;;;32.67;20.82;;;;;;;-1.55;81.62;95669.02;1767483;80;21467;-81
2021/01/01 04:05:06;;;;;;;34.33;21.82;;;;;;;-1.52;81.54;95670.84;1771379;80;21124;-82
2021/01/01 04:07:32;;;;;;;36.60;22.90;;;;;;;-1.51;81.42;95666.55;1767643;80;21359;-82
2021/01/01 04:09:58;;;;;;;42.05;24.80;;;;;;;-1.51;81.32;95665.28;1763495;80;21225;-81
2021/01/01 04:12:24;;;;;;;37.98;24.70;;;;;;;-1.49;81.47;95665.95;1770951;80;21097;-82
2021/01/01 04:14:50;;;;;;;39.05;24.47;;;;;;;-1.44;81.47;95668.15;1768980;80;21116;-81
2021/01/01 04:17:16;;;;;;;42.20;24.92;;;;;;;-1.45;81.42;95671.16;1768113;80;21316;-82
2021/01/01 04:19:42;;;;;;;42.05;26.25;;;;;;;-1.47;81.41;95664.09;1769168;80;21089;-82
2021/01/01 04:22:09;;;;;;;43.42;25.17;;;;;;;-1.46;81.40;95666.20;1766333;80;21115;-82
2021/01/01 04:24:35;;;;;;;39.60;25.30;;;;;;;-1.46;81.30;95666.20;1771012;80;21081;-82
2021/01/01 04:27:01;;;;;;;35.17;24.15;;;;;;;-1.49;81.09;95665.95;1768586;80;21116;-82
2021/01/01 04:29:27;;;;;;;33.05;20.37;;;;;;;-1.50;80.95;95669.44;1767278;80;21107;-82
2021/01/01 04:31:53;;;;;;;27.37;20.40;;;;;;;-1.53;80.73;95670.97;1767188;80;21133;-82
2021/01/01 04:34:19;;;;;;;29.85;18.87;;;;;;;-1.56;80.65;95666.94;1770014;80;21105;-82
2021/01/01 04:36:45;;;;;;;23.15;15.68;;;;;;;-1.59;80.62;95665.91;1771291;80;21434;-82
2021/01/01 04:39:11;;;;;;;21.25;14.75;;;;;;;-1.59;80.67;95665.11;1769607;80;21142;-82
2021/01/01 04:41:40;;;;;;;21.02;14.35;;;;;;;-1.58;80.63;95669.27;1771706;80;21257;-82
2021/01/01 04:44:06;;;;;;;16.17;11.83;;;;;;;-1.58;80.65;95667.99;1743962;80;21128;-82
2021/01/01 04:46:32;;;;;;;18.50;11.50;;;;;;;-1.58;80.57;95671.34;1770654;80;21422;-82
2021/01/01 04:48:58;;;;;;;17.27;11.78;;;;;;;-1.60;80.53;95668.59;1771361;80;21114;-81
2021/01/01 04:51:24;;;;;;;17.42;12.03;;;;;;;-1.63;80.64;95669.65;1773155;80;21112;-82
2021/01/01 04:53:50;;;;;;;16.65;11.65;;;;;;;-1.63;80.82;95678.56;1774301;80;21249;-82
2021/01/01 04:56:17;;;;;;;18.25;12.70;;;;;;;-1.61;80.93;95675.89;1766850;80;21313;-83
2021/01/01 04:58:43;;;;;;;21.70;14.93;;;;;;;-1.60;81.02;95669.39;1767060;80;21088;-81
2021/01/01 05:01:10;;;;;;;20.88;14.45;;;;;;;-1.59;81.05;95668.46;1762057;80;21103;-81
2021/01/01 05:03:36;;;;;;;23.38;15.13;;;;;;;-1.58;81.15;95668.80;1752913;80;22269;-82
2021/01/01 05:06:02;;;;;;;28.40;17.62;;;;;;;-1.57;81.22;95668.33;1760329;80;21111;-82
2021/01/01 05:08:28;;;;;;;24.72;15.63;;;;;;;-1.53;81.34;95667.14;1735303;80;21341;-82
2021/01/01 05:10:54;;;;;;;27.80;17.60;;;;;;;-1.47;81.34;95659.45;1757544;80;21073;-82
2021/01/01 05:13:20;;;;;;;25.32;17.35;;;;;;;-1.43;81.21;95660.84;1765096;80;21392;-82
2021/01/01 05:15:48;;;;;;;30.00;18.67;;;;;;;-1.41;80.96;95661.05;1756974;80;21239;-82
2021/01/01 05:18:25;;;;;;;29.35;18.15;;;;;;;-1.45;80.72;95665.27;1752726;80;21105;-82
2021/01/01 05:20:57;;;;;;;23.87;15.38;;;;;;;-1.47;80.62;95672.20;1753869;80;21336;-82
2021/01/01 05:23:28;;;;;;;22.32;13.72;;;;;;;-1.50;80.48;95677.08;1770760;80;21334;-81
2021/01/01 05:26:15;;;;;;;32.60;19.48;;;;;;;-1.52;80.34;95672.58;1756857;80;21284;-82
2021/01/01 05:28:53;;;;;;;33.35;21.02;;;;;;;-1.52;80.67;95681.50;1763684;80;21276;-82
2021/01/01 05:31:26;;;;;;;37.03;20.23;;;;;;;-1.61;80.90;95691.17;1714995;83;21108;-82
2021/01/01 05:34:00;;;;;;;35.00;21.40;;;;;;;-1.61;80.90;95689.91;1751470;80;21086;-82
2021/01/01 05:36:39;;;;;;;36.48;23.32;;;;;;;-1.57;81.08;95689.98;1759839;80;21965;-82
2021/01/01 05:39:19;;;;;;;41.13;23.83;;;;;;;-1.54;81.12;95693.09;1758011;80;21134;-82
2021/01/01 05:41:48;;;;;;;35.88;22.52;;;;;;;-1.64;81.26;95697.77;1764609;80;21319;-83
2021/01/01 05:44:28;;;;;;;39.27;23.70;;;;;;;-1.65;81.58;95704.60;1771297;80;21233;-83
2021/01/01 05:47:01;;;;;;;39.78;23.62;;;;;;;-1.60;81.67;95706.80;1754496;80;21073;-82
2021/01/01 05:49:35;;;;;;;;;;;;;;;-1.57;81.47;95698.91;1757114;80;21327;-82
2021/01/01 05:52:18;;;;;;;34.53;21.52;;;;;;;-1.58;81.19;95701.11;1759953;80;20152;-82
2021/01/01 05:54:50;;;;;;;29.23;18.55;;;;;;;-1.57;81.08;95700.18;1761144;80;21419;-82
2021/01/01 05:57:19;;;;;;;25.95;15.18;;;;;;;-1.60;80.72;95706.80;1765248;80;21133;-81
2021/01/01 05:59:46;;;;;;;28.85;17.98;;;;;;;-1.64;80.50;95703.67;1756073;80;21596;-82
2021/01/01 06:02:13;;;;;;;24.43;14.47;;;;;;;-1.67;80.37;95700.56;1767995;80;21102;-82
2021/01/01 06:04:39;;;;;;;21.25;13.98;;;;;;;-1.72;80.22;95693.77;1770442;80;21113;-81
2021/01/01 06:07:09;;;;;;;22.65;15.63;;;;;;;-1.74;80.08;95692.63;1761958;80;21126;-81
2021/01/01 06:09:36;;;;;;;16.87;11.90;;;;;;;-1.78;80.07;95696.35;1769556;80;21950;-81
2021/01/01 06:12:13;;;;;;;15.80;10.80;;;;;;;-1.81;79.98;95697.84;1771922;80;21285;-81
2021/01/01 06:14:42;;;;;;;13.03;9.23;;;;;;;-1.83;79.93;95701.79;1766481;80;21112;-81
2021/01/01 06:17:17;;;;;;;11.63;7.55;;;;;;;-1.85;79.79;95700.30;1771699;80;21268;-81
2021/01/01 06:19:52;;;;;;;4.95;4.33;;;;;;;-1.92;79.66;95693.63;1773234;80;21407;-81
2021/01/01 06:22:24;;;;;;;4.45;4.05;;;;;;;-1.94;79.70;95691.67;1744681;80;21094;-81
2021/01/01 06:25:00;;;;;;;4.85;3.70;;;;;;;-1.98;79.87;95692.83;1773050;80;21136;-81
2021/01/01 06:27:30;;;;;;;3.45;3.15;;;;;;;-2.02;80.08;95690.66;1768517;80;21127;-81
2021/01/01 06:30:10;;;;;;;5.35;4.65;;;;;;;-1.96;80.16;95702.88;1773735;80;21271;-81
2021/01/01 06:32:36;;;;;;;7.65;5.83;;;;;;;-1.95;80.05;95707.88;1730273;82;21332;-81
2021/01/01 06:35:17;;;;;;;8.10;6.55;;;;;;;-1.97;79.93;95707.63;1716302;82;21110;-82
2021/01/01 06:37:46;;;;;;;5.50;4.42;;;;;;;-1.97;79.84;95708.44;1716683;83;21133;-80
2021/01/01 06:40:27;;;;;;;3.25;2.90;;;;;;;-1.98;79.83;95704.75;1695736;83;21494;-80
2021/01/01 06:43:07;;;;;;;4.20;3.55;;;;;;;-1.95;80.14;95711.70;1705970;83;21145;-80
2021/01/01 06:45:45;;;;;;;4.42;3.55;;;;;;;-1.91;80.15;95711.80;1710827;83;21579;-79
2021/01/01 06:48:35;;;;;;;4.62;3.83;;;;;;;-1.89;80.09;95708.66;1702432;83;21162;-81
2021/01/01 06:51:01;;;;;;;5.60;4.53;;;;;;;-1.90;80.23;95709.59;1711535;83;21248;-82
2021/01/01 06:53:29;;;;;;;6.58;4.70;;;;;;;-1.85;80.44;95708.75;1708994;83;21158;-82
2021/01/01 06:56:07;;;;;;;7.05;5.62;;;;;;;-1.85;80.42;95702.38;1707423;83;21130;-82
2021/01/01 06:58:33;;;;;;;12.18;7.50;;;;;;;-1.79;80.56;95698.99;1719413;83;21533;-82
2021/01/01 07:00:59;;;;;;;11.48;7.65;;;;;;;-1.78;80.57;95696.35;1706174;83;21242;-82
2021/01/01 07:03:37;;;;;;;14.28;9.50;;;;;;;-1.75;80.50;95700.39;1720143;82;21376;-82
2021/01/01 07:06:08;;;;;;;14.38;10.68;;;;;;;-1.74;80.66;95702.81;1759510;80;21086;-82
2021/01/01 07:08:45;;;;;;;8.78;5.90;;;;;;;-1.70;80.59;95700.82;1685791;83;21137;-82
2021/01/01 07:11:26;;;;;;;4.15;3.70;;;;;;;-1.68;80.49;95706.59;1766250;80;21121;-82
2021/01/01 07:13:58;;;;;;;2.90;2.40;;;;;;;-1.66;80.33;95714.45;1772130;80;21119;-82
2021/01/01 07:16:26;;;;;;;2.27;2.17;;;;;;;-1.68;80.36;95709.14;1721846;83;21142;-81
2021/01/01 07:18:53;;;;;;;2.52;2.33;;;;;;;-1.63;80.51;95707.02;1745064;81;21111;-81
2021/01/01 07:21:20;;;;;;;2.87;2.25;;;;;;;-1.60;80.68;95702.98;1693138;83;21138;-82
2021/01/01 07:23:47;;;;;;;2.50;2.27;;;;;;;-1.54;80.71;95712.20;1769821;80;21134;-82
2021/01/01 07:26:13;;;;;;;2.15;2.00;;;;;;;-1.52;80.79;95707.78;1758681;80;21105;-82
2021/01/01 07:28:41;;;;;;;2.22;2.02;;;;;;;-1.50;80.72;95707.66;1717121;82;21111;-81
2021/01/01 07:31:07;;;;;;;2.27;2.08;;;;;;;-1.50;80.83;95703.84;1774777;80;21146;-82
2021/01/01 07:33:34;;;;;;;2.33;2.15;;;;;;;-1.49;80.97;95697.80;1772708;80;21109;-81
2021/01/01 07:36:05;;;;;;;2.58;1.98;;;;;;;-1.49;81.05;95712.28;1766465;80;21235;-82
2021/01/01 07:38:33;;;;;;;2.00;1.85;;;;;;;-1.47;81.08;95709.95;1765239;80;21408;-82
2021/01/01 07:40:59;;;;;;;2.27;2.17;;;;;;;-1.42;81.19;95710.87;1776494;80;21091;-81
2021/01/01 07:43:25;;;;;;;2.00;1.90;;;;;;;-1.41;81.12;95713.30;1764684;80;21233;-81
2021/01/01 07:45:56;;;;;;;3.00;2.10;;;;;;;-1.36;81.06;95720.09;1767745;80;21079;-81
2021/01/01 07:48:22;;;;;;;32.58;18.67;;;;;;;-1.33;80.96;95728.75;1775700;80;21094;-80
2021/01/01 07:50:48;;;;;;;11.55;7.78;;;;;;;-1.30;80.99;95720.08;1777497;80;21102;-81
2021/01/01 07:53:14;;;;;;;16.00;10.95;;;;;;;-1.31;80.76;95717.16;1785947;80;21085;-80
2021/01/01 07:55:41;;;;;;;5.65;4.42;;;;;;;-1.34;80.91;95719.49;1779955;80;21135;-80
2021/01/01 07:58:10;;;;;;;7.22;5.75;;;;;;;-1.36;80.75;95717.55;1779573;80;21226;-81
2021/01/01 08:00:42;;;;;;;8.70;7.25;;;;;;;-1.39;80.76;95716.98;1758319;80;21146;-80
2021/01/01 08:03:09;;;;;;;3.50;3.20;;;;;;;-1.37;80.82;95723.58;1764713;80;21233;-80
2021/01/01 08:05:36;;;;;;;3.20;2.87;;;;;;;-1.38;80.88;95714.78;1769353;80;22003;-80
2021/01/01 08:08:18;;;;;;;3.08;2.45;;;;;;;-1.36;80.88;95718.81;1776618;80;21239;-80
2021/01/01 08:10:45;;;;;;;2.98;2.00;;;;;;;-1.34;81.05;95725.87;1765455;80;21333;-80
2021/01/01 08:13:14;;;;;;;2.47;2.30;;;;;;;-1.36;81.00;95726.46;1759366;80;21281;-81
2021/01/01 08:15:42;;;;;;;2.08;1.95;;;;;;;-1.34;81.25;95721.23;1737547;80;21110;-80
2021/01/01 08:18:20;;;;;;;2.10;2.00;;;;;;;-1.34;81.23;95725.87;1761527;80;21083;-81
2021/01/01 08:20:48;;;;;;;1.90;1.80;;;;;;;-1.29;81.26;95731.89;1764880;80;21069;-81
2021/01/01 08:23:17;;;;;;;2.20;1.90;;;;;;;-1.28;81.25;95727.13;1756194;80;21293;-80
2021/01/01 08:25:45;;;;;;;2.10;2.00;;;;;;;-1.24;81.53;95735.66;1752546;80;21118;-81
2021/01/01 08:28:18;;;;;;;2.00;1.80;;;;;;;-1.18;81.58;95736.89;1762335;80;21114;-80
2021/01/01 08:30:45;;;;;;;2.10;2.00;;;;;;;-1.13;81.73;95736.55;1729313;80;21127;-81
2021/01/01 08:33:11;;;;;;;2.85;2.60;;;;;;;-1.13;81.42;95745.47;1765850;80;21082;-81
2021/01/01 08:35:37;;;;;;;3.85;2.62;;;;;;;-1.14;81.37;95741.27;1751492;80;21110;-81
2021/01/01 08:38:17;;;;;;;3.58;3.27;;;;;;;-1.11;81.30;95742.32;1771100;80;21400;-80
2021/01/01 08:40:43;;;;;;;3.33;3.02;;;;;;;-1.13;81.31;95742.45;1757480;80;21336;-80
2021/01/01 08:43:10;;;;;;;3.20;2.60;;;;;;;-1.10;81.52;95743.47;1764124;80;21103;-80
2021/01/01 08:45:36;;;;;;;3.15;2.42;;;;;;;-1.07;81.58;95749.58;1762716;80;21233;-80
2021/01/01 08:48:10;;;;;;;2.50;2.30;;;;;;;-1.03;81.44;95747.11;1765194;80;21229;-80
2021/01/01 08:50:50;;;;;;;3.15;2.85;;;;;;;-1.00;81.47;95741.76;1689832;83;21403;-81
2021/01/01 08:53:16;;;;;;;4.28;3.83;;;;;;;-0.99;81.39;95740.02;1759779;80;21094;-81
2021/01/01 08:55:43;;;;;;;3.70;2.90;;;;;;;-0.95;81.41;95741.41;1767696;80;21274;-80
2021/01/01 08:58:16;;;;;;;3.17;2.90;;;;;;;-0.98;81.55;95737.80;1772826;80;21074;-80
2021/01/01 09:00:47;;;;;;;3.35;2.80;;;;;;;-0.96;81.69;95748.24;1747297;80;21605;-81
2021/01/01 09:03:15;;;;;;;4.10;3.72;;;;;;;-0.94;81.60;95747.65;1774928;80;21109;-80
2021/01/01 09:05:41;;;;;;;3.50;3.20;;;;;;;-0.94;81.54;95750.67;1761196;80;21432;-81
2021/01/01 09:08:17;;;;;;;10.18;7.75;;;;;;;-0.95;81.39;95746.03;1781657;80;21075;-80
2021/01/01 09:10:47;;;;;;;6.85;6.20;;;;;;;-0.94;81.39;95750.67;1726457;81;21340;-81
2021/01/01 09:13:26;;;;;;;4.53;4.12;;;;;;;-0.93;81.40;95749.73;1774866;80;21082;-80
2021/01/01 09:16:03;;;;;;;12.13;9.13;;;;;;;-0.95;81.49;95749.05;1699974;82;21290;-80
2021/01/01 09:18:30;;;;;;;13.62;8.78;;;;;;;-0.93;81.63;95754.36;1771449;80;21301;-80
2021/01/01 09:21:14;;;;;;;19.45;12.20;;;;;;;-0.93;81.59;95758.19;1779850;80;21098;-79
2021/01/01 09:23:43;;;;;;;14.53;9.25;;;;;;;-0.88;81.63;95760.82;1770319;80;21131;-80
2021/01/01 09:26:16;;;;;;;8.55;6.90;;;;;;;-0.85;81.68;95758.81;1760342;80;21105;-80
2021/01/01 09:28:42;;;;;;;5.45;4.42;;;;;;;-0.80;81.69;95761.81;1765959;80;21087;-80
2021/01/01 09:31:13;;;;;;;5.90;4.80;;;;;;;-0.77;81.63;95765.85;1766685;80;21409;-80
2021/01/01 09:33:36;;;;;;;6.40;4.30;;;;;;;-0.75;81.70;95762.23;1717310;82;21158;-80
2021/01/01 09:36:02;;;;;;;7.00;4.25;;;;;;;-0.71;81.91;95764.05;1777896;80;21232;-80
2021/01/01 09:38:28;;;;;;;5.25;3.83;;;;;;;-0.65;82.02;95769.94;1778016;80;21138;-80
2021/01/01 09:40:55;;;;;;;2.33;2.10;;;;;;;-0.61;82.00;95764.45;1760715;80;21356;-80
2021/01/01 09:43:21;;;;;;;1.70;1.60;;;;;;;-0.56;81.99;95765.80;1780836;80;21118;-80
2021/01/01 09:45:47;;;;;;;1.57;1.47;;;;;;;-0.52;82.02;95760.77;1723399;82;21309;-79
2021/01/01 09:48:13;;;;;;;4.95;3.45;;;;;;;-0.48;82.31;95768.53;1769005;80;21381;-79
2021/01/01 09:50:39;;;;;;;10.58;4.10;;;;;;;-0.44;82.18;95766.05;1774019;80;21132;-80
2021/01/01 09:53:05;;;;;;;6.40;3.60;;;;;;;-0.41;82.26;95765.79;1764625;80;21099;-80
2021/01/01 09:55:32;;;;;;;2.30;2.10;;;;;;;-0.37;82.42;95760.76;1771823;80;21141;-80
2021/01/01 09:57:58;;;;;;;3.40;3.17;;;;;;;-0.33;82.27;95765.50;1752762;80;21284;-78
2021/01/01 10:00:24;;;;;;;1.95;1.85;;;;;;;-0.31;82.42;95759.79;1774449;80;21150;-80
2021/01/01 10:02:50;;;;;;;1.50;1.40;;;;;;;-0.24;82.57;95763.09;1761500;80;21114;-79
2021/01/01 10:05:16;;;;;;;2.02;1.55;;;;;;;-0.21;82.42;95771.29;1774902;80;21332;-80
2021/01/01 10:07:44;;;;;;;1.77;1.67;;;;;;;-0.19;82.23;95774.52;1769135;80;21071;-80
2021/01/01 10:10:11;;;;;;;1.90;1.80;;;;;;;-0.12;82.54;95771.80;1731506;82;21114;-80
2021/01/01 10:12:37;;;;;;;1.85;1.75;;;;;;;-0.02;82.33;95770.05;1761570;80;21123;-80
2021/01/01 10:15:05;;;;;;;6.25;4.10;;;;;;;0.04;82.36;95770.48;1765302;80;21396;-80
2021/01/01 10:17:33;;;;;;;3.70;3.27;;;;;;;0.09;82.51;95770.42;1751507;80;21390;-80
2021/01/01 10:19:59;;;;;;;5.17;3.80;;;;;;;0.19;82.45;95771.25;1763483;80;21325;-78
2021/01/01 10:22:25;;;;;;;7.70;5.03;;;;;;;0.27;82.39;95767.55;1770669;80;21149;-78
2021/01/01 10:24:51;;;;;;;5.12;3.87;;;;;;;0.33;82.40;95756.00;1777010;80;21443;-78
2021/01/01 10:27:17;;;;;;;3.55;2.70;;;;;;;0.36;82.25;95762.12;1768671;80;21288;-78
2021/01/01 10:29:43;;;;;;;3.75;3.45;;;;;;;0.39;82.26;95759.76;1762421;80;21115;-78
2021/01/01 10:32:11;;;;;;;4.10;2.90;;;;;;;0.44;82.23;95748.66;1767299;80;21257;-82
2021/01/01 10:34:42;;;;;;;4.90;3.90;;;;;;;0.48;82.25;95748.23;1761906;80;21082;-82
2021/01/01 10:37:09;;;;;;;22.27;14.33;;;;;;;0.55;82.51;95747.25;1773459;80;21135;-82
2021/01/01 10:39:36;;;;;;;5.50;4.42;;;;;;;0.68;82.71;95745.22;1754202;80;21232;-82
2021/01/01 10:42:02;;;;;;;9.33;6.45;;;;;;;0.72;82.40;95732.97;1770387;80;21320;-84
2021/01/01 10:44:28;;;;;;;18.67;12.13;;;;;;;0.78;82.41;95737.05;1739382;82;21123;-84
2021/01/01 10:46:54;;;;;;;32.73;20.60;;;;;;;0.85;82.50;95729.66;1776464;80;21098;-84
2021/01/01 10:49:22;;;;;;;34.55;22.73;;;;;;;0.89;82.44;95729.70;1701838;83;21386;-83
2021/01/01 10:51:48;;;;;;;40.17;27.82;;;;;;;0.93;82.50;95725.92;1775739;80;21336;-84
2021/01/01 10:54:14;;;;;;;50.05;33.45;;;;;;;1.02;82.70;95729.41;1687308;83;21266;-83
2021/01/01 10:56:40;;;;;;;44.35;30.62;;;;;;;1.12;82.92;95731.45;1710690;82;21156;-84
2021/01/01 10:59:07;;;;;;;26.05;17.10;;;;;;;1.21;82.83;95730.63;1712208;82;21283;-83
2021/01/01 11:01:33;;;;;;;19.70;15.03;;;;;;;1.29;82.62;95732.00;1779838;80;21348;-83
2021/01/01 11:03:59;;;;;;;24.80;16.00;;;;;;;1.28;82.12;95721.91;1788634;80;21365;-82
2021/01/01 11:06:25;;;;;;;24.70;18.00;;;;;;;1.28;82.31;95720.62;1772475;80;21220;-83
2021/01/01 11:08:51;;;;;;;22.58;13.35;;;;;;;1.31;82.45;95719.09;1769289;80;21125;-84
2021/01/01 11:11:22;;;;;;;34.70;24.47;;;;;;;1.34;82.30;95718.80;1777753;80;21130;-83
2021/01/01 12:25:38;;;;;;;85.40;53.83;;;;;;;2.37;82.58;95747.45;1681713;84;21271;-80
2021/01/01 12:28:05;;;;;;;88.67;53.63;;;;;;;2.46;82.53;95755.23;1688378;83;21157;-81
2021/01/01 12:30:32;;;;;;;85.95;49.20;;;;;;;2.49;82.60;95754.94;1671458;83;21145;-81
2021/01/01 12:32:59;;;;;;;78.72;48.80;;;;;;;2.56;82.58;95750.81;1698135;83;21148;-82
2021/01/01 12:35:26;;;;;;;74.75;46.68;;;;;;;2.57;82.39;95753.71;1699074;83;21118;-81
2021/01/01 12:38:02;;;;;;;74.32;46.75;;;;;;;2.61;82.47;95753.77;1696332;83;21156;-81
2021/01/01 12:40:28;;;;;;;82.62;48.13;;;;;;;2.62;82.42;95763.87;1701317;83;21157;-81
2021/01/01 12:42:55;;;;;;;73.02;47.13;;;;;;;2.64;82.39;95765.01;1698047;83;21264;-81